Time;durP1;ratioP1;P1;durP2;ratioP2;P2;SDS_P1;SDS_P2;PMS_P1;PMS_P2;Temp;Humidity;BMP_temperature;BMP_pressure;BME280_temperature;BME280_humidity;BME280_pressure;Samples;Min_cycle;Max_cycle;Signal;HPM_P1;HPM_P2
2022/06/21 00:01:00;;;;;;;7.15;3.27;;;;;;;21.80;48.95;99386.64;1405393;91;21600;-80
2022/06/21 00:03:28;;;;;;;8.15;3.37;;;;;;;21.73;48.96;99386.55;1394842;93;21370;-79
2022/06/21 00:05:55;;;;;;;7.15;3.77;;;;;;;21.67;49.27;99392.38;1410184;91;21475;-79
2022/06/21 00:08:26;;;;;;;12.95;3.70;;;;;;;21.52;50.59;99380.84;1422315;91;21401;-79
2022/06/21 00:10:54;;;;;;;6.78;3.42;;;;;;;21.41;50.65;99385.77;1411050;91;21291;-79
2022/06/21 00:13:25;;;;;;;7.62;4.08;;;;;;;21.35;50.44;99385.38;1419820;91;21540;-79
2022/06/21 00:15:58;;;;;;;9.00;3.92;;;;;;;21.30;50.93;99390.13;1402357;93;21511;-79
2022/06/21 00:18:26;;;;;;;5.53;4.40;;;;;;;21.26;51.21;99389.50;1407338;91;22523;-79
2022/06/21 00:20:53;;;;;;;22.65;4.05;;;;;;;21.25;50.98;99391.37;1411199;91;22503;-79
2022/06/21 00:23:24;;;;;;;8.13;3.72;;;;;;;21.27;50.86;99384.42;1398596;91;21446;-79
2022/06/21 00:25:51;;;;;;;10.88;4.10;;;;;;;21.28;50.83;99379.31;1386752;94;22383;-79
2022/06/21 00:28:20;;;;;;;8.60;3.97;;;;;;;21.30;50.87;99377.20;1400687;91;21350;-79
2022/06/21 00:30:48;;;;;;;10.55;3.52;;;;;;;21.28;51.30;99382.82;1417425;91;21378;-79
2022/06/21 00:33:18;;;;;;;8.88;4.12;;;;;;;21.28;51.46;99384.70;1417817;91;21514;-81
2022/06/21 00:35:48;;;;;;;10.98;3.58;;;;;;;21.23;51.93;99387.30;1429763;91;22258;-81
2022/06/21 00:38:30;;;;;;;8.45;3.47;;;;;;;21.15;52.15;99391.22;1427497;91;21498;-81
2022/06/21 00:41:00;;;;;;;5.37;3.35;;;;;;;21.07;52.15;99391.06;1403326;91;21654;-81
2022/06/21 00:43:30;;;;;;;8.68;4.22;;;;;;;21.05;52.43;99383.76;1384434;93;21557;-82
2022/06/21 00:45:57;;;;;;;8.20;4.33;;;;;;;21.08;52.22;99375.20;1383213;94;21497;-80
2022/06/21 00:48:37;;;;;;;6.40;4.20;;;;;;;21.12;52.08;99371.53;1389675;91;21408;-80
2022/06/21 00:51:18;;;;;;;7.03;3.80;;;;;;;21.15;52.05;99378.58;1405506;93;21393;-79
2022/06/21 00:53:53;;;;;;;6.65;3.75;;;;;;;21.16;52.14;99372.66;1406219;93;21436;-79
2022/06/21 00:56:36;;;;;;;10.38;3.85;;;;;;;21.15;52.22;99367.81;1406979;91;21586;-79
2022/06/21 00:59:23;;;;;;;28.87;4.13;;;;;;;21.15;52.17;99365.12;1400394;93;21497;-79
2022/06/21 01:01:52;;;;;;;6.93;4.07;;;;;;;21.14;52.52;99358.09;1418155;91;21520;-79
2022/06/21 01:04:36;;;;;;;10.67;4.07;;;;;;;21.12;52.60;99353.50;1415154;91;21607;-79
2022/06/21 01:07:07;;;;;;;7.57;3.13;;;;;;;21.10;53.31;99348.89;1414527;91;21413;-79
2022/06/21 01:09:51;;;;;;;8.10;3.47;;;;;;;21.08;53.53;99337.55;1418499;91;22527;-79
2022/06/21 01:12:29;;;;;;;10.47;4.37;;;;;;;21.08;53.28;99338.89;1411457;91;21435;-80
2022/06/21 01:15:02;;;;;;;7.87;4.00;;;;;;;21.11;53.02;99339.75;1397482;93;21443;-80
2022/06/21 01:17:31;;;;;;;12.13;3.93;;;;;;;21.14;52.93;99331.19;1407511;91;21408;-80
2022/06/21 01:20:02;;;;;;;11.07;4.80;;;;;;;21.16;53.06;99328.27;1421424;91;21531;-80
2022/06/21 01:22:39;;;;;;;12.10;4.50;;;;;;;21.13;53.27;99320.69;1427166;90;21467;-80
2022/06/21 01:25:34;;;;;;;7.62;4.58;;;;;;;21.05;54.11;99321.89;1419190;91;21534;-80
2022/06/21 01:28:02;;;;;;;6.42;3.87;;;;;;;20.98;54.03;99325.28;1412242;91;21445;-80
2022/06/21 01:30:29;;;;;;;8.77;4.23;;;;;;;20.95;54.05;99310.98;1384270;93;21512;-80
2022/06/21 01:32:59;;;;;;;8.78;4.33;;;;;;;20.95;53.94;99312.32;1392053;91;21460;-80
2022/06/21 01:35:53;;;;;;;10.25;3.85;;;;;;;20.97;53.95;99294.05;1408377;91;21371;-81
2022/06/21 01:38:25;;;;;;;15.43;3.83;;;;;;;21.00;53.66;99297.59;1403170;93;21482;-82
2022/06/21 01:40:56;;;;;;;9.43;3.50;;;;;;;21.02;53.48;99298.70;1401683;93;22994;-80
2022/06/21 01:43:27;;;;;;;14.93;4.17;;;;;;;21.03;53.27;99294.44;1409567;93;21430;-80
2022/06/21 01:46:00;;;;;;;12.43;3.90;;;;;;;21.03;53.24;99302.52;1415926;91;22480;-80
2022/06/21 01:48:34;;;;;;;6.25;3.70;;;;;;;21.03;53.38;99311.93;1420010;91;21529;-80
2022/06/21 01:51:06;;;;;;;13.03;3.72;;;;;;;21.02;53.33;99319.69;1396335;93;21636;-80
2022/06/21 01:53:34;;;;;;;6.22;3.67;;;;;;;21.02;53.31;99314.31;1418390;91;21519;-80
2022/06/21 01:56:05;;;;;;;8.55;3.00;;;;;;;21.06;53.33;99322.70;1396790;92;21571;-80
2022/06/21 01:58:36;;;;;;;11.55;4.17;;;;;;;21.07;53.32;99319.78;1411296;91;21466;-80
2022/06/21 02:01:08;;;;;;;9.55;3.52;;;;;;;21.08;53.34;99332.16;1429530;90;21523;-80
2022/06/21 02:03:38;;;;;;;7.90;3.55;;;;;;;21.10;53.47;99326.55;1397156;91;21475;-82
2022/06/21 02:06:09;;;;;;;19.70;3.75;;;;;;;21.12;53.61;99333.33;1418368;91;21572;-82
2022/06/21 02:08:50;;;;;;;5.95;3.67;;;;;;;21.15;53.61;99326.11;1408552;91;21445;-82
2022/06/21 02:11:19;;;;;;;;;;;;;;;21.18;53.64;99320.78;1405985;93;22554;-82
2022/06/21 02:16:46;;;;;;;19.52;3.25;;;;;;;21.26;53.42;99312.81;1397261;93;22736;-82
2022/06/21 02:19:17;;;;;;;10.25;3.80;;;;;;;21.30;53.48;99313.97;1435094;89;21550;-82
2022/06/21 02:21:43;;;;;;;21.05;4.35;;;;;;;21.34;53.56;99311.06;1437531;90;21416;-82
2022/06/21 02:24:14;;;;;;;7.17;4.30;;;;;;;21.36;53.48;99304.91;1418180;90;21481;-82
2022/06/21 02:26:40;;;;;;;12.25;3.60;;;;;;;21.39;53.39;99298.53;1411236;92;21363;-82
2022/06/21 02:29:11;;;;;;;11.33;3.37;;;;;;;21.42;53.34;99296.42;1421301;91;22526;-82
2022/06/21 02:31:37;;;;;;;;;;;;;;;21.43;53.38;99306.11;1402667;91;21486;-82
2022/06/21 02:34:07;;;;;;;11.78;3.80;;;;;;;21.42;54.29;99312.03;1433233;90;20362;-82
2022/06/21 02:36:38;;;;;;;11.78;4.55;;;;;;;21.41;53.74;99307.72;1425346;91;21597;-83
2022/06/21 02:39:06;;;;;;;8.03;4.10;;;;;;;21.39;54.10;99320.06;1432882;90;21376;-83
2022/06/21 02:41:37;;;;;;;10.93;3.62;;;;;;;21.34;54.35;99342.81;1418293;89;21898;-83
2022/06/21 02:44:18;;;;;;;7.55;3.45;;;;;;;21.30;54.51;99344.38;1412530;92;21366;-82
2022/06/21 02:46:52;;;;;;;8.70;3.33;;;;;;;21.26;55.01;99344.59;1409617;91;21686;-82
2022/06/21 02:49:35;;;;;;;7.75;3.22;;;;;;;21.17;55.26;99358.95;1433873;90;21398;-82
2022/06/21 02:52:21;;;;;;;7.92;3.30;;;;;;;21.11;55.85;99356.42;1408116;90;21619;-82
2022/06/21 02:55:02;;;;;;;9.50;3.62;;;;;;;21.05;56.24;99356.05;1409044;92;21640;-82
2022/06/21 02:57:40;;;;;;;13.75;4.30;;;;;;;21.04;56.01;99366.00;1425026;90;21464;-82
2022/06/21 03:00:11;;;;;;;13.40;3.95;;;;;;;20.98;56.48;99358.09;1417574;91;21546;-82
2022/06/21 03:02:37;;;;;;;7.13;3.57;;;;;;;20.95;56.61;99356.70;1402404;90;21472;-82
2022/06/21 03:05:09;;;;;;;7.23;4.23;;;;;;;20.94;56.67;99355.05;1426192;89;21458;-82
2022/06/21 03:07:40;;;;;;;11.28;3.62;;;;;;;20.91;56.92;99349.61;1434576;91;22410;-82
2022/06/21 03:10:17;;;;;;;12.07;3.60;;;;;;;20.87;57.40;99360.58;1436103;91;21413;-82
2022/06/21 03:12:46;;;;;;;15.58;4.65;;;;;;;20.78;57.84;99363.38;1408063;91;21611;-82
2022/06/21 03:15:13;;;;;;;8.55;4.50;;;;;;;20.73;58.09;99362.73;1431747;90;21553;-82
2022/06/21 03:17:50;;;;;;;12.85;4.10;;;;;;;20.72;57.99;99371.06;1430087;90;21563;-82
2022/06/21 03:20:19;;;;;;;8.43;5.17;;;;;;;20.70;58.06;99373.97;1435146;90;22042;-82
2022/06/21 03:22:48;;;;;;;8.20;3.80;;;;;;;20.68;58.05;99378.77;1409135;91;22359;-82
2022/06/21 03:25:39;;;;;;;15.97;4.13;;;;;;;20.63;58.69;99392.13;1413335;91;23579;-82
2022/06/21 03:28:35;;;;;;;5.00;3.90;;;;;;;20.60;58.67;99396.64;1412639;91;22433;-82
2022/06/21 03:31:18;;;;;;;9.13;4.50;;;;;;;20.57;59.37;99398.46;1431056;91;21539;-82
2022/06/21 03:33:49;;;;;;;19.60;6.20;;;;;;;20.57;58.61;99403.84;1418288;91;21567;-81
2022/06/21 03:36:23;;;;;;;27.90;4.90;;;;;;;20.55;60.48;99399.22;1434945;91;21504;-83
2022/06/21 03:39:05;;;;;;;22.82;4.85;;;;;;;20.56;61.14;99404.88;1431909;91;22329;-81
2022/06/21 03:41:44;;;;;;;14.77;4.67;;;;;;;20.60;61.42;99403.86;1417989;90;22211;-81
2022/06/21 03:44:34;;;;;;;9.78;4.05;;;;;;;20.65;61.47;99421.45;1438675;90;21589;-81
2022/06/21 03:47:21;;;;;;;10.50;4.28;;;;;;;20.69;61.27;99425.31;1427078;91;21390;-82
2022/06/21 03:50:19;;;;;;;18.57;4.35;;;;;;;20.75;61.01;99430.27;1430610;91;21605;-82
2022/06/21 03:53:12;;;;;;;9.73;4.00;;;;;;;20.81;61.10;99431.46;1432518;91;21493;-82
2022/06/21 03:55:55;;;;;;;11.48;4.42;;;;;;;20.87;61.33;99433.72;1429956;91;22314;-84
2022/06/21 03:58:46;;;;;;;8.00;4.15;;;;;;;20.91;64.08;99439.70;1421982;90;21724;-84
2022/06/21 04:01:25;;;;;;;;;;;;;;;20.98;66.06;99451.70;1402817;92;21628;-83
2022/06/21 04:04:00;;;;;;;23.77;5.42;;;;;;;21.06;65.73;99447.28;1382508;95;20305;-83
2022/06/21 04:06:38;;;;;;;7.80;4.60;;;;;;;21.16;65.17;99444.77;1379551;94;21532;-82
2022/06/21 04:09:12;;;;;;;9.93;4.55;;;;;;;21.25;65.34;99447.08;1401868;92;21452;-82
2022/06/21 04:11:50;;;;;;;7.20;4.05;;;;;;;21.27;66.25;99459.23;1389771;93;21468;-82
2022/06/21 04:14:33;;;;;;;19.12;6.95;;;;;;;21.35;64.94;99462.08;1398342;93;21599;-83
2022/06/21 04:17:26;;;;;;;11.28;5.03;;;;;;;21.39;65.16;99455.17;1408874;93;21591;-82
2022/06/21 04:20:10;;;;;;;10.80;5.30;;;;;;;21.42;64.64;99464.10;1407545;93;22481;-82
2022/06/21 04:22:44;;;;;;;17.62;5.60;;;;;;;21.42;64.74;99462.76;1395194;93;21601;-82
2022/06/21 04:25:44;;;;;;;13.40;5.60;;;;;;;21.43;64.39;99464.38;1403806;93;21607;-82
2022/06/21 04:28:21;;;;;;;16.48;4.03;;;;;;;21.41;64.32;99469.20;1380740;94;21417;-82
2022/06/21 04:31:10;;;;;;;10.75;4.65;;;;;;;21.41;64.60;99461.13;1414582;92;21577;-82
2022/06/21 04:33:47;;;;;;;10.60;4.60;;;;;;;21.39;66.00;99461.36;1407789;92;21481;-82
2022/06/21 04:36:40;;;;;;;10.13;4.72;;;;;;;21.46;66.57;99471.16;1392205;94;21461;-82
2022/06/21 04:39:30;;;;;;;9.70;4.90;;;;;;;21.55;66.62;99481.30;1402219;92;21460;-82
2022/06/21 04:42:25;;;;;;;9.80;4.90;;;;;;;21.63;67.12;99480.88;1380208;95;21520;-83
2022/06/21 04:45:13;;;;;;;9.45;5.45;;;;;;;21.65;68.11;99469.08;1388070;93;21459;-82
2022/06/21 04:47:48;;;;;;;13.22;5.95;;;;;;;21.73;67.82;99467.33;1414380;93;21460;-82
2022/06/21 04:50:35;;;;;;;8.23;5.03;;;;;;;21.81;67.96;99477.17;1408226;93;21512;-82
2022/06/21 04:53:06;;;;;;;10.18;5.30;;;;;;;21.90;67.60;99482.97;1404081;93;21387;-82
2022/06/21 04:55:44;;;;;;;8.95;6.22;;;;;;;21.93;67.48;99491.91;1368325;93;21616;-81
2022/06/21 04:58:11;;;;;;;14.75;5.92;;;;;;;22.04;67.69;99492.89;1409976;93;21475;-82
2022/06/21 05:00:38;;;;;;;11.60;6.03;;;;;;;21.92;68.71;99501.02;1418181;93;21461;-81
2022/06/21 05:03:28;;;;;;;9.38;5.95;;;;;;;21.95;68.60;99508.64;1411099;93;21372;-82
2022/06/21 05:05:54;;;;;;;11.10;5.12;;;;;;;21.98;68.22;99514.89;1388515;94;21542;-81
2022/06/21 05:08:23;;;;;;;18.98;6.35;;;;;;;22.02;68.45;99521.41;1401033;92;21431;-82
2022/06/21 05:10:54;;;;;;;18.52;5.17;;;;;;;22.09;67.90;99525.28;1398007;94;23258;-82
2022/06/21 05:13:29;;;;;;;18.12;5.70;;;;;;;22.10;68.25;99529.63;1394578;94;21394;-82
2022/06/21 05:16:00;;;;;;;32.63;2.90;;;;;;;22.18;67.39;99533.80;1395140;94;22399;-82
2022/06/21 05:18:46;;;;;;;33.65;4.15;;;;;;;21.97;59.92;99545.56;1396202;94;22725;-82
2022/06/21 05:21:17;;;;;;;10.50;2.92;;;;;;;21.85;60.01;99538.09;1395951;94;21491;-83
2022/06/21 05:23:43;;;;;;;15.32;2.50;;;;;;;21.76;59.99;99531.47;1394894;94;21439;-83
2022/06/21 05:26:18;;;;;;;18.67;2.85;;;;;;;21.72;60.34;99547.81;1395634;94;21534;-83
2022/06/21 05:28:52;;;;;;;10.63;3.25;;;;;;;21.63;59.22;99544.16;1385587;94;21481;-83
2022/06/21 05:31:24;;;;;;;43.13;5.10;;;;;;;21.59;59.43;99555.13;1406826;92;22428;-84
2022/06/21 05:33:55;;;;;;;9.88;2.87;;;;;;;21.38;59.83;99558.52;1404204;93;22449;-82
2022/06/21 05:36:27;;;;;;;10.55;2.42;;;;;;;21.43;59.78;99568.00;1412399;92;22384;-84
2022/06/21 05:39:04;;;;;;;11.83;2.42;;;;;;;21.48;59.31;99570.80;1411031;93;21601;-82
2022/06/21 05:41:36;;;;;;;11.93;2.37;;;;;;;21.53;60.04;99572.78;1400895;92;22475;-83
2022/06/21 05:44:34;;;;;;;10.05;1.95;;;;;;;21.49;58.17;99572.45;1416380;92;21600;-84
2022/06/21 05:47:24;;;;;;;8.93;1.95;;;;;;;21.53;58.13;99576.29;1422828;92;22324;-82
2022/06/21 05:49:51;;;;;;;4.65;2.35;;;;;;;21.68;58.25;99572.25;1415558;92;22405;-82
2022/06/21 05:52:25;;;;;;;144.25;11.38;;;;;;;21.53;57.68;99578.98;1413427;92;21533;-83
2022/06/21 05:54:59;;;;;;;6.90;1.72;;;;;;;21.50;57.99;99583.50;1410768;92;21436;-82
2022/06/21 05:57:31;;;;;;;8.60;1.98;;;;;;;21.53;57.45;99590.29;1406155;92;21637;-82
2022/06/21 05:59:59;;;;;;;4.83;2.00;;;;;;;21.61;57.45;99589.91;1403772;92;21488;-82
2022/06/21 06:02:43;;;;;;;7.55;1.90;;;;;;;21.66;57.58;99594.02;1409790;91;22368;-82
2022/06/21 06:05:17;;;;;;;5.72;2.02;;;;;;;21.73;57.25;99599.28;1435873;90;21452;-82
2022/06/21 06:07:48;;;;;;;4.87;2.10;;;;;;;21.84;57.05;99601.11;1408317;92;21488;-82
2022/06/21 06:10:18;;;;;;;8.93;1.98;;;;;;;21.81;56.57;99598.90;1405610;92;21681;-86
2022/06/21 06:12:49;;;;;;;29.52;2.52;;;;;;;21.80;56.45;99608.83;1412428;92;21511;-90
2022/06/21 06:15:33;;;;;;;17.10;2.70;;;;;;;21.71;56.87;99617.55;1434309;92;21312;-88
2022/06/21 06:18:16;;;;;;;10.58;1.60;;;;;;;21.79;56.48;99622.55;1474133;92;22416;-88
2022/06/21 06:21:05;;;;;;;2.17;1.52;;;;;;;21.51;56.27;99620.66;1488144;92;21424;-88
2022/06/21 06:24:01;;;;;;;11.65;2.50;;;;;;;21.61;56.33;99620.34;1381615;92;21326;-88
2022/06/21 06:26:36;;;;;;;36.15;2.80;;;;;;;21.75;56.38;99626.77;1327794;93;22388;-89
2022/06/21 06:29:23;;;;;;;15.15;2.87;;;;;;;21.85;55.74;99625.63;1469691;92;21379;-89
2022/06/21 06:32:12;;;;;;;8.85;2.35;;;;;;;21.94;56.04;99630.91;1459948;92;21408;-87
2022/06/21 06:34:43;;;;;;;17.32;1.80;;;;;;;22.04;55.66;99632.45;1482865;93;21231;-89
2022/06/21 06:37:30;;;;;;;11.15;2.12;;;;;;;22.11;55.58;99634.17;1332472;93;21275;-82
2022/06/21 06:39:54;;;;;;;6.65;2.37;;;;;;;22.09;55.00;99641.95;1378285;92;22385;-83
2022/06/21 06:42:25;;;;;;;3.58;1.50;;;;;;;22.19;54.04;99650.80;1325873;94;21335;-83
2022/06/21 06:44:59;;;;;;;5.08;1.35;;;;;;;22.38;53.91;99639.78;1482861;91;21347;-82
2022/06/21 06:47:42;;;;;;;8.38;1.50;;;;;;;22.46;53.08;99634.80;1482341;93;21217;-82
2022/06/21 06:50:16;;;;;;;6.83;1.67;;;;;;;22.46;53.08;99634.80;1462779;93;21371;-83
2022/06/21 06:53:18;;;;;;;9.00;2.20;;;;;;;22.41;52.72;99662.20;1433215;91;21274;-82
2022/06/21 06:55:48;;;;;;;5.87;1.82;;;;;;;21.85;53.16;99675.45;1334123;92;21416;-85
2022/06/21 06:58:32;;;;;;;15.10;1.27;;;;;;;21.77;53.88;99670.45;1428488;94;21327;-83
2022/06/21 07:01:06;;;;;;;9.05;1.40;;;;;;;21.83;53.28;99664.91;1333125;94;21320;-87
2022/06/21 07:03:53;;;;;;;8.30;1.37;;;;;;;21.85;53.45;99668.72;1334197;94;21394;-94
2022/06/21 07:06:28;;;;;;;16.50;1.75;;;;;;;21.80;53.11;99673.47;1429010;92;21581;-93
2022/06/21 07:08:58;;;;;;;31.33;1.87;;;;;;;21.99;53.21;99680.03;1406289;92;21444;-92
2022/06/21 07:11:33;;;;;;;8.63;1.52;;;;;;;22.18;52.83;99680.16;1435832;92;21451;-94
2022/06/21 07:14:00;;;;;;;14.23;2.15;;;;;;;22.42;52.61;99685.42;1405077;93;21608;-93
2022/06/21 07:16:28;;;;;;;6.33;1.42;;;;;;;22.26;51.42;99685.67;1359496;93;21447;-92
2022/06/21 07:18:59;;;;;;;4.00;1.30;;;;;;;22.23;51.18;99690.20;1407516;93;21385;-92
2022/06/21 07:21:26;;;;;;;5.17;1.20;;;;;;;22.26;51.33;99687.83;1407151;93;22457;-95
2022/06/21 07:23:54;;;;;;;5.67;1.20;;;;;;;22.30;51.35;99694.39;1413156;92;21335;-94
2022/06/21 07:26:44;;;;;;;8.28;1.70;;;;;;;22.38;50.84;99691.81;1378321;93;21548;-93
2022/06/21 07:29:32;;;;;;;9.35;1.22;;;;;;;22.53;50.64;99693.98;1397922;93;22823;-89
2022/06/21 07:32:10;;;;;;;3.62;1.70;;;;;;;22.43;49.49;99693.79;1410434;93;21334;-92
2022/06/21 07:34:57;;;;;;;4.67;1.50;;;;;;;22.26;48.82;99700.50;1408531;93;21526;-93
2022/06/21 07:37:38;;;;;;;7.15;1.67;;;;;;;22.32;49.26;99709.49;1402149;93;21407;-94
2022/06/21 07:40:34;;;;;;;1.82;0.88;;;;;;;22.42;49.84;99718.59;1417156;93;21711;-93
2022/06/21 07:43:08;;;;;;;18.75;2.05;;;;;;;22.38;47.95;99717.42;1409968;93;21460;-93
2022/06/21 07:46:04;;;;;;;9.93;0.98;;;;;;;22.40;48.94;99712.61;1401294;93;21931;-92
2022/06/21 07:48:47;;;;;;;5.42;1.20;;;;;;;22.59;48.88;99719.97;1404553;93;22391;-93
2022/06/21 07:51:20;;;;;;;9.68;1.35;;;;;;;22.58;48.27;99711.56;1408107;93;21438;-93
2022/06/21 07:54:01;;;;;;;2.52;1.12;;;;;;;22.79;48.68;99720.83;1410104;92;22399;-93
2022/06/21 07:56:35;;;;;;;7.53;1.40;;;;;;;22.82;48.07;99708.20;1402121;91;22257;-92
2022/06/21 07:59:19;;;;;;;26.73;2.72;;;;;;;22.85;46.76;99730.64;1406415;93;22575;-93
2022/06/21 08:08:17;;;;;;;3.58;1.30;;;;;;;22.72;46.84;99720.98;1404075;93;22458;-93
2022/06/21 08:10:52;;;;;;;12.43;1.40;;;;;;;22.87;46.11;99727.69;1407793;93;21371;-93
2022/06/21 08:13:19;;;;;;;3.17;1.22;;;;;;;22.82;46.63;99719.00;1411202;93;21512;-94
2022/06/21 08:15:53;;;;;;;3.67;1.50;;;;;;;23.04;46.25;99712.33;1408420;93;21497;-92
2022/06/21 08:18:26;;;;;;;21.93;2.33;;;;;;;23.03;45.69;99726.09;1405747;93;21371;-93
2022/06/21 08:21:09;;;;;;;22.77;2.52;;;;;;;23.23;45.33;99728.28;1391387;93;21438;-93
2022/06/21 08:23:50;;;;;;;6.35;2.08;;;;;;;23.16;45.09;99725.73;1411875;93;21415;-94
2022/06/21 08:26:46;;;;;;;9.28;2.00;;;;;;;23.34;45.64;99721.96;1407565;93;21445;-93
2022/06/21 08:29:24;;;;;;;16.62;2.35;;;;;;;23.51;45.51;99724.63;1410577;92;21577;-96
2022/06/21 08:32:05;;;;;;;13.48;2.80;;;;;;;23.31;44.65;99724.63;1420064;92;21532;-96
2022/06/21 08:34:50;;;;;;;7.05;1.85;;;;;;;23.46;45.18;99729.95;1397414;92;22118;-95
2022/06/21 08:37:44;;;;;;;14.60;2.20;;;;;;;23.70;45.11;99731.37;1404829;92;21333;-96
2022/06/21 08:40:32;;;;;;;17.57;1.85;;;;;;;23.83;44.20;99722.90;1406768;92;21378;-94
2022/06/21 08:43:41;;;;;;;2.98;1.52;;;;;;;23.86;44.17;99727.80;1392446;93;22290;-96
2022/06/21 08:46:46;;;;;;;21.87;3.60;;;;;;;23.42;43.90;99737.20;1404950;93;22502;-93
2022/06/21 08:50:00;;;;;;;8.75;1.77;;;;;;;23.67;43.97;99725.63;1415509;92;21607;-92
2022/06/21 08:52:47;;;;;;;13.60;2.55;;;;;;;23.49;44.46;99725.41;1393488;92;21578;-95
2022/06/21 08:55:35;;;;;;;8.28;1.70;;;;;;;23.69;44.02;99726.20;1375685;92;22553;-92
2022/06/21 08:58:29;;;;;;;4.92;1.57;;;;;;;23.74;43.76;99727.66;1393632;92;21578;-92
2022/06/21 09:01:10;;;;;;;6.60;1.52;;;;;;;23.83;43.44;99736.41;1393976;91;21467;-95
2022/06/21 09:04:04;;;;;;;3.85;1.52;;;;;;;23.77;43.36;99733.36;1343148;95;21639;-93
2022/06/21 09:06:37;;;;;;;9.87;2.27;;;;;;;23.78;43.23;99733.64;1405347;91;22559;-92
2022/06/21 09:09:22;;;;;;;4.50;1.75;;;;;;;24.05;43.56;99723.41;1432191;90;21349;-93
2022/06/21 09:12:03;;;;;;;16.77;2.15;;;;;;;24.25;42.52;99726.86;1422194;91;21355;-93
2022/06/21 09:14:54;;;;;;;3.65;1.55;;;;;;;23.91;41.73;99726.21;1457209;89;21497;-93
2022/06/21 09:17:30;;;;;;;9.33;2.40;;;;;;;24.15;42.51;99724.88;1453161;89;21629;-95
2022/06/21 09:20:32;;;;;;;3.02;2.08;;;;;;;24.41;42.07;99726.50;1429944;90;21443;-95
2022/06/21 09:23:26;;;;;;;10.70;1.92;;;;;;;24.41;41.85;99723.79;1447255;89;22288;-96
2022/06/21 09:26:09;;;;;;;3.27;1.70;;;;;;;24.68;41.74;99728.66;1422485;91;21385;-96
2022/06/21 09:28:51;;;;;;;4.42;1.90;;;;;;;24.80;40.61;99728.51;1426433;89;21415;-95
2022/06/21 09:31:42;;;;;;;4.00;1.57;;;;;;;25.03;41.66;99734.09;1404716;92;22605;-96
2022/06/21 09:34:30;;;;;;;3.35;1.85;;;;;;;25.06;40.46;99731.38;1396898;92;21541;-94
2022/06/21 09:37:11;;;;;;;4.17;1.47;;;;;;;25.28;40.72;99725.88;1409452;92;21534;-95
2022/06/21 09:39:53;;;;;;;2.95;1.52;;;;;;;25.52;40.28;99733.05;1390104;93;21528;-94
2022/06/21 09:42:41;;;;;;;5.42;2.00;;;;;;;25.72;40.42;99736.39;1406947;92;21356;-93
2022/06/21 09:45:17;;;;;;;3.25;2.22;;;;;;;25.81;39.27;99729.41;1408497;93;21460;-96
2022/06/21 09:48:18;;;;;;;3.52;2.00;;;;;;;25.80;39.53;99725.05;1364827;93;22479;-93
2022/06/21 09:51:17;;;;;;;4.97;1.47;;;;;;;25.93;39.21;99727.31;1405265;92;21451;-94
2022/06/21 09:53:55;;;;;;;6.08;2.08;;;;;;;25.87;38.19;99720.25;1404448;93;21417;-92
2022/06/21 09:57:01;;;;;;;5.65;1.80;;;;;;;25.81;38.08;99722.64;1402243;93;21461;-90
2022/06/21 09:59:54;;;;;;;5.62;1.70;;;;;;;25.81;38.22;99721.28;1373209;93;22692;-89
2022/06/21 10:03:10;;;;;;;7.15;1.92;;;;;;;25.68;38.53;99723.92;1401247;93;21439;-88
2022/06/21 10:05:58;;;;;;;1.90;1.77;;;;;;;25.89;38.75;99718.06;1394644;93;21556;-91
2022/06/21 10:08:37;;;;;;;8.60;2.00;;;;;;;26.03;38.67;99723.27;1388949;93;22277;-91
2022/06/21 10:11:32;;;;;;;2.30;1.82;;;;;;;25.88;36.89;99725.94;1384748;94;21474;-89
2022/06/21 10:14:22;;;;;;;4.60;1.87;;;;;;;25.89;37.72;99730.27;1385515;94;21415;-90
2022/06/21 10:17:27;;;;;;;5.00;1.87;;;;;;;25.88;37.73;99739.48;1386984;94;21519;-93
2022/06/21 10:20:34;;;;;;;5.30;1.98;;;;;;;26.09;37.88;99737.11;1394318;93;21564;-91
2022/06/21 10:23:25;;;;;;;4.85;2.12;;;;;;;26.51;38.03;99725.84;1388450;94;21541;-89
2022/06/21 10:26:45;;;;;;;3.92;2.05;;;;;;;26.70;36.99;99721.52;1395251;93;21528;-89
2022/06/21 10:29:51;;;;;;;5.08;1.98;;;;;;;26.80;36.47;99719.34;1403494;93;21461;-90
2022/06/21 10:32:36;;;;;;;3.67;1.50;;;;;;;26.91;35.86;99720.95;1400165;93;21505;-90
2022/06/21 10:35:28;;;;;;;7.55;1.82;;;;;;;27.08;36.18;99725.30;1380305;94;21504;-88
2022/06/21 10:38:19;;;;;;;2.47;1.77;;;;;;;26.91;35.15;99714.17;1386051;93;21565;-94
2022/06/21 10:41:06;;;;;;;7.50;1.98;;;;;;;26.88;35.08;99726.94;1405318;91;21442;-90
2022/06/21 10:43:48;;;;;;;1.95;1.65;;;;;;;27.01;35.28;99725.55;1407372;92;21456;-90
2022/06/21 10:46:27;;;;;;;5.15;1.85;;;;;;;27.07;35.43;99734.52;1413355;92;21597;-90
2022/06/21 10:49:14;;;;;;;7.45;2.40;;;;;;;27.29;35.66;99724.19;1435970;90;21365;-91
2022/06/21 10:52:14;;;;;;;3.95;1.72;;;;;;;27.06;34.39;99726.91;1429990;91;21640;-92
2022/06/21 10:54:58;;;;;;;5.67;2.37;;;;;;;27.00;35.21;99729.37;1398125;92;21629;-92
2022/06/21 10:58:03;;;;;;;1.72;1.52;;;;;;;26.88;34.82;99731.01;1404888;92;22221;-92
2022/06/21 11:04:19;;;;;;;2.80;2.02;;;;;;;27.50;35.50;99713.26;1415713;91;21503;-96
2022/06/21 11:07:04;;;;;;;1.70;1.60;;;;;;;27.59;33.63;99723.30;1417547;91;21574;-95
2022/06/21 11:09:52;;;;;;;7.45;1.72;;;;;;;27.48;33.79;99711.36;1410571;92;22873;-93
2022/06/21 11:12:56;;;;;;;6.12;2.37;;;;;;;27.60;34.26;99705.89;1418278;92;21377;-94
2022/06/21 11:15:55;;;;;;;6.30;2.87;;;;;;;27.62;34.73;99709.67;1402785;92;21565;-93
2022/06/21 11:19:09;;;;;;;4.62;1.20;;;;;;;27.61;34.20;99712.13;1418192;91;21453;-92
2022/06/21 11:21:48;;;;;;;1.70;1.50;;;;;;;27.53;32.73;99716.78;1375101;94;21474;-92
2022/06/21 11:24:29;;;;;;;10.32;1.98;;;;;;;27.55;33.07;99726.28;1394839;92;22103;-93
2022/06/21 11:27:20;;;;;;;3.42;1.37;;;;;;;27.85;33.53;99724.04;1360392;95;22013;-94
2022/06/21 11:29:53;;;;;;;3.02;1.72;;;;;;;28.08;33.16;99723.08;1343211;96;21567;-96
2022/06/21 11:32:46;;;;;;;4.87;1.75;;;;;;;28.10;33.12;99716.27;1364413;96;21698;-96
2022/06/21 11:35:44;;;;;;;7.08;1.32;;;;;;;28.27;33.18;99717.27;1370207;94;22639;-95
2022/06/21 11:38:37;;;;;;;5.72;1.50;;;;;;;28.47;33.33;99714.17;1344658;97;21469;-96
2022/06/21 11:44:44;;;;;;;3.08;1.30;;;;;;;28.63;32.06;99711.61;1358816;94;21556;-95
2022/06/21 11:47:27;;;;;;;2.75;1.30;;;;;;;28.92;31.72;99715.71;1347043;97;21595;-96
2022/06/21 11:50:27;;;;;;;7.33;1.92;;;;;;;28.86;30.63;99716.02;1367791;94;21623;-94
2022/06/21 11:53:05;;;;;;;3.47;1.67;;;;;;;28.62;30.32;99712.69;1390216;94;21675;-92
2022/06/21 11:55:57;;;;;;;1.70;1.27;;;;;;;28.49;30.80;99699.74;1365142;95;22563;-90
2022/06/21 11:58:35;;;;;;;5.80;1.42;;;;;;;28.44;30.95;99706.58;1326043;98;22564;-92
2022/06/21 12:01:19;;;;;;;8.13;1.60;;;;;;;28.24;30.75;99705.59;1408887;96;21418;-92
2022/06/21 12:04:10;;;;;;;1.82;1.22;;;;;;;28.52;30.47;99711.42;1377547;94;22353;-93
2022/06/21 12:07:05;;;;;;;2.77;1.55;;;;;;;28.42;30.72;99701.41;1385073;93;21452;-91
2022/06/21 12:09:50;;;;;;;1.77;1.42;;;;;;;28.40;30.47;99698.67;1404432;91;21394;-91
2022/06/21 12:12:29;;;;;;;3.90;1.60;;;;;;;28.37;30.29;99701.95;1373164;95;21409;-90
2022/06/21 12:15:27;;;;;;;5.25;1.57;;;;;;;28.38;29.75;99690.00;1377053;95;21927;-90
2022/06/21 12:18:04;;;;;;;5.62;1.37;;;;;;;28.10;29.66;99682.83;1390219;93;22443;-92
2022/06/21 12:20:49;;;;;;;2.60;1.32;;;;;;;27.70;29.86;99690.08;1400070;93;21580;-92
2022/06/21 12:23:57;;;;;;;5.75;1.72;;;;;;;27.63;30.68;99686.31;1403256;93;21509;-95
2022/06/21 12:26:30;;;;;;;4.40;1.62;;;;;;;27.97;30.91;99684.83;1400464;92;21468;-92
2022/06/21 12:29:00;;;;;;;7.17;1.90;;;;;;;27.99;29.49;99685.34;1388994;93;22362;-94
2022/06/21 12:31:35;;;;;;;;;;;;;;;27.94;28.96;99683.48;1391370;93;21424;-92
2022/06/21 12:34:13;;;;;;;4.53;1.20;;;;;;;27.89;29.23;99687.58;1396693;93;21213;-92
2022/06/21 12:36:49;;;;;;;5.87;1.55;;;;;;;27.96;29.41;99687.27;1406494;92;22340;-92
2022/06/21 12:39:49;;;;;;;7.45;1.67;;;;;;;28.14;29.58;99685.27;1400152;92;21647;-92
2022/06/21 12:42:41;;;;;;;8.30;1.90;;;;;;;28.29;28.75;99679.71;1405949;91;21423;-93
2022/06/21 12:45:48;;;;;;;5.83;1.62;;;;;;;28.52;28.49;99680.13;1408754;91;21409;-92
2022/06/21 12:48:21;;;;;;;4.75;1.00;;;;;;;28.76;28.60;99682.90;1408354;91;22969;-90
2022/06/21 12:51:15;;;;;;;3.90;1.20;;;;;;;28.61;27.81;99678.41;1426234;91;22422;-92